Pettibone, North Dakota
Current Conditions -  °F | °C
As of 4:15 PM on Tuesday 25 Nov 2014 (Local Time) from K46D Reporting Station
Light Snow Light Snow  
Wind Chill: 14°   Ceiling: 100
Heat Index: 27°   Visibility: 0.75mi
Dew Point: 27°   Wind: 16mph
Humidity: 100%   Direction: 100°E
Pressure: 29.8"   Gusts: NA
Location:  47.12°N, 99.52°W
Report Text: K46D 252215Z AUTO 10014KT 3/4SM -SN OVC001 M03/M03 A2980 RMK AO2 P0002
Loading
Personal Weather Stations






























Interactive Weather Map New forecast layout! Learn more

10-Day Weather Forecast

Advertisements
Track Severe Weather on mobile